sensor_id;sensor_type;location;lat;lon;timestamp;P1;durP1;ratioP1;P2;durP2;ratioP2
18867;SDS011;9563;49.240;9.088;2024-03-08T05:01:12;35.13;;;15.47;;
18867;SDS011;9563;49.240;9.088;2024-03-08T05:03:39;37.47;;;16.33;;
18867;SDS011;9563;49.240;9.088;2024-03-08T05:06:06;38.40;;;16.67;;
18867;SDS011;9563;49.240;9.088;2024-03-08T05:08:33;32.37;;;15.50;;
18867;SDS011;9563;49.240;9.088;2024-03-08T05:11:00;34.87;;;15.73;;
18867;SDS011;9563;49.240;9.088;2024-03-08T05:13:28;39.03;;;16.83;;
18867;SDS011;9563;49.240;9.088;2024-03-08T05:15:55;35.87;;;16.70;;
18867;SDS011;9563;49.240;9.088;2024-03-08T05:18:25;38.00;;;16.77;;
18867;SDS011;9563;49.240;9.088;2024-03-08T05:20:53;35.00;;;15.53;;
18867;SDS011;9563;49.240;9.088;2024-03-08T05:23:20;33.60;;;16.20;;
18867;SDS011;9563;49.240;9.088;2024-03-08T05:25:47;36.00;;;17.20;;
18867;SDS011;9563;49.240;9.088;2024-03-08T05:28:14;34.90;;;16.43;;
18867;SDS011;9563;49.240;9.088;2024-03-08T05:30:41;38.10;;;17.27;;
18867;SDS011;9563;49.240;9.088;2024-03-08T05:33:07;34.43;;;16.50;;
18867;SDS011;9563;49.240;9.088;2024-03-08T05:35:37;38.20;;;16.43;;
18867;SDS011;9563;49.240;9.088;2024-03-08T05:38:04;36.60;;;16.23;;
18867;SDS011;9563;49.240;9.088;2024-03-08T05:40:32;36.20;;;16.93;;
18867;SDS011;9563;49.240;9.088;2024-03-08T05:42:58;39.20;;;17.07;;
18867;SDS011;9563;49.240;9.088;2024-03-08T05:45:25;30.47;;;16.13;;
18867;SDS011;9563;49.240;9.088;2024-03-08T05:47:52;33.77;;;16.40;;
18867;SDS011;9563;49.240;9.088;2024-03-08T05:50:19;36.57;;;16.27;;
18867;SDS011;9563;49.240;9.088;2024-03-08T05:52:48;35.20;;;17.30;;
18867;SDS011;9563;49.240;9.088;2024-03-08T05:55:15;40.10;;;16.33;;
18867;SDS011;9563;49.240;9.088;2024-03-08T05:57:42;31.90;;;15.60;;
18867;SDS011;9563;49.240;9.088;2024-03-08T06:00:09;37.73;;;16.93;;
18867;SDS011;9563;49.240;9.088;2024-03-08T06:02:40;36.57;;;16.97;;
18867;SDS011;9563;49.240;9.088;2024-03-08T06:05:08;35.60;;;16.67;;
18867;SDS011;9563;49.240;9.088;2024-03-08T06:07:36;33.67;;;16.37;;
18867;SDS011;9563;49.240;9.088;2024-03-08T06:10:07;35.33;;;16.23;;
18867;SDS011;9563;49.240;9.088;2024-03-08T06:12:36;37.30;;;16.57;;
18867;SDS011;9563;49.240;9.088;2024-03-08T06:15:05;33.13;;;15.90;;
18867;SDS011;9563;49.240;9.088;2024-03-08T06:17:33;36.10;;;17.17;;
18867;SDS011;9563;49.240;9.088;2024-03-08T06:20:00;37.77;;;17.30;;
18867;SDS011;9563;49.240;9.088;2024-03-08T06:22:27;39.93;;;17.50;;
18867;SDS011;9563;49.240;9.088;2024-03-08T06:24:55;34.53;;;17.13;;
18867;SDS011;9563;49.240;9.088;2024-03-08T06:27:23;34.07;;;15.83;;
18867;SDS011;9563;49.240;9.088;2024-03-08T06:29:50;35.30;;;16.47;;
18867;SDS011;9563;49.240;9.088;2024-03-08T06:32:17;35.20;;;16.83;;
18867;SDS011;9563;49.240;9.088;2024-03-08T06:34:44;36.13;;;15.87;;
18867;SDS011;9563;49.240;9.088;2024-03-08T06:37:11;38.27;;;16.40;;
18867;SDS011;9563;49.240;9.088;2024-03-08T06:39:39;38.67;;;16.87;;
18867;SDS011;9563;49.240;9.088;2024-03-08T06:42:06;35.53;;;16.50;;
18867;SDS011;9563;49.240;9.088;2024-03-08T06:44:37;32.33;;;16.47;;
18867;SDS011;9563;49.240;9.088;2024-03-08T06:47:10;38.33;;;16.87;;
18867;SDS011;9563;49.240;9.088;2024-03-08T06:49:37;38.77;;;16.83;;
18867;SDS011;9563;49.240;9.088;2024-03-08T06:52:05;32.07;;;16.30;;
18867;SDS011;9563;49.240;9.088;2024-03-08T06:54:33;38.07;;;17.03;;
18867;SDS011;9563;49.240;9.088;2024-03-08T06:57:00;34.17;;;16.30;;
18867;SDS011;9563;49.240;9.088;2024-03-08T06:59:28;45.60;;;17.50;;
18867;SDS011;9563;49.240;9.088;2024-03-08T07:01:57;34.10;;;16.13;;
18867;SDS011;9563;49.240;9.088;2024-03-08T07:04:24;39.70;;;16.67;;
18867;SDS011;9563;49.240;9.088;2024-03-08T07:06:54;34.57;;;15.83;;
18867;SDS011;9563;49.240;9.088;2024-03-08T07:09:22;40.20;;;17.30;;
18867;SDS011;9563;49.240;9.088;2024-03-08T07:11:49;38.87;;;17.47;;
18867;SDS011;9563;49.240;9.088;2024-03-08T07:14:19;35.87;;;16.53;;
18867;SDS011;9563;49.240;9.088;2024-03-08T07:16:47;35.77;;;17.00;;
18867;SDS011;9563;49.240;9.088;2024-03-08T07:19:15;34.27;;;16.00;;
18867;SDS011;9563;49.240;9.088;2024-03-08T07:21:42;37.13;;;17.23;;
18867;SDS011;9563;49.240;9.088;2024-03-08T07:24:09;34.60;;;15.77;;
18867;SDS011;9563;49.240;9.088;2024-03-08T07:26:52;38.93;;;16.67;;
18867;SDS011;9563;49.240;9.088;2024-03-08T07:29:20;41.23;;;17.17;;
18867;SDS011;9563;49.240;9.088;2024-03-08T07:31:47;38.43;;;17.13;;
18867;SDS011;9563;49.240;9.088;2024-03-08T07:34:22;35.00;;;16.30;;
18867;SDS011;9563;49.240;9.088;2024-03-08T07:36:49;35.67;;;16.97;;
18867;SDS011;9563;49.240;9.088;2024-03-08T07:39:16;34.20;;;16.30;;
18867;SDS011;9563;49.240;9.088;2024-03-08T07:41:44;32.67;;;15.67;;
18867;SDS011;9563;49.240;9.088;2024-03-08T07:44:10;36.23;;;15.60;;
18867;SDS011;9563;49.240;9.088;2024-03-08T07:46:39;34.73;;;16.53;;
18867;SDS011;9563;49.240;9.088;2024-03-08T07:49:06;32.97;;;15.77;;
18867;SDS011;9563;49.240;9.088;2024-03-08T07:51:37;29.70;;;15.60;;
18867;SDS011;9563;49.240;9.088;2024-03-08T07:54:04;35.73;;;16.10;;
18867;SDS011;9563;49.240;9.088;2024-03-08T07:56:32;36.50;;;16.93;;
18867;SDS011;9563;49.240;9.088;2024-03-08T07:58:59;32.63;;;15.90;;
18867;SDS011;9563;49.240;9.088;2024-03-08T08:01:26;28.93;;;14.87;;
18867;SDS011;9563;49.240;9.088;2024-03-08T08:03:53;30.83;;;15.13;;
18867;SDS011;9563;49.240;9.088;2024-03-08T08:06:21;35.73;;;15.50;;
18867;SDS011;9563;49.240;9.088;2024-03-08T08:08:50;31.90;;;15.00;;
18867;SDS011;9563;49.240;9.088;2024-03-08T08:11:16;30.53;;;14.27;;
18867;SDS011;9563;49.240;9.088;2024-03-08T08:13:43;25.67;;;14.00;;
18867;SDS011;9563;49.240;9.088;2024-03-08T08:16:10;29.13;;;15.07;;
18867;SDS011;9563;49.240;9.088;2024-03-08T08:18:38;27.47;;;14.63;;
18867;SDS011;9563;49.240;9.088;2024-03-08T08:21:06;30.57;;;15.10;;
18867;SDS011;9563;49.240;9.088;2024-03-08T08:23:32;27.83;;;14.73;;
18867;SDS011;9563;49.240;9.088;2024-03-08T08:26:01;31.17;;;15.93;;
18867;SDS011;9563;49.240;9.088;2024-03-08T08:28:29;29.57;;;15.23;;
18867;SDS011;9563;49.240;9.088;2024-03-08T08:30:56;32.30;;;15.60;;
18867;SDS011;9563;49.240;9.088;2024-03-08T08:33:24;27.20;;;14.33;;
18867;SDS011;9563;49.240;9.088;2024-03-08T08:35:51;30.33;;;14.60;;
18867;SDS011;9563;49.240;9.088;2024-03-08T08:38:19;27.47;;;14.70;;
18867;SDS011;9563;49.240;9.088;2024-03-08T08:40:46;29.83;;;15.53;;
18867;SDS011;9563;49.240;9.088;2024-03-08T08:43:15;34.50;;;16.00;;
18867;SDS011;9563;49.240;9.088;2024-03-08T08:45:42;30.10;;;15.00;;
18867;SDS011;9563;49.240;9.088;2024-03-08T08:48:12;31.33;;;15.70;;
18867;SDS011;9563;49.240;9.088;2024-03-08T08:50:39;32.20;;;15.97;;
18867;SDS011;9563;49.240;9.088;2024-03-08T08:53:06;29.57;;;15.30;;
18867;SDS011;9563;49.240;9.088;2024-03-08T08:55:33;31.00;;;15.57;;
18867;SDS011;9563;49.240;9.088;2024-03-08T08:58:01;31.53;;;16.53;;
18867;SDS011;9563;49.240;9.088;2024-03-08T09:00:30;28.87;;;15.50;;
18867;SDS011;9563;49.240;9.088;2024-03-08T09:02:57;29.50;;;15.70;;
18867;SDS011;9563;49.240;9.088;2024-03-08T09:05:24;30.07;;;15.63;;
18867;SDS011;9563;49.240;9.088;2024-03-08T09:07:51;31.83;;;15.80;;
18867;SDS011;9563;49.240;9.088;2024-03-08T09:10:19;31.37;;;15.53;;
18867;SDS011;9563;49.240;9.088;2024-03-08T09:12:46;29.97;;;15.67;;
18867;SDS011;9563;49.240;9.088;2024-03-08T09:15:13;31.70;;;17.73;;
18867;SDS011;9563;49.240;9.088;2024-03-08T09:17:47;27.97;;;15.63;;
18867;SDS011;9563;49.240;9.088;2024-03-08T09:20:16;32.17;;;15.67;;
18867;SDS011;9563;49.240;9.088;2024-03-08T09:22:43;29.97;;;16.23;;
18867;SDS011;9563;49.240;9.088;2024-03-08T09:25:10;29.40;;;14.40;;
18867;SDS011;9563;49.240;9.088;2024-03-08T09:27:37;29.53;;;15.30;;
18867;SDS011;9563;49.240;9.088;2024-03-08T09:30:05;30.67;;;15.13;;
18867;SDS011;9563;49.240;9.088;2024-03-08T09:32:32;26.73;;;13.80;;
18867;SDS011;9563;49.240;9.088;2024-03-08T09:35:00;30.33;;;15.47;;
18867;SDS011;9563;49.240;9.088;2024-03-08T09:37:28;25.97;;;13.37;;
18867;SDS011;9563;49.240;9.088;2024-03-08T09:39:55;32.13;;;14.67;;
18867;SDS011;9563;49.240;9.088;2024-03-08T09:42:24;29.47;;;15.07;;
18867;SDS011;9563;49.240;9.088;2024-03-08T09:44:51;28.17;;;15.03;;
18867;SDS011;9563;49.240;9.088;2024-03-08T09:47:18;26.93;;;14.17;;
18867;SDS011;9563;49.240;9.088;2024-03-08T09:49:48;26.83;;;14.00;;
18867;SDS011;9563;49.240;9.088;2024-03-08T09:52:16;30.97;;;15.13;;
18867;SDS011;9563;49.240;9.088;2024-03-08T09:54:45;31.10;;;15.63;;
18867;SDS011;9563;49.240;9.088;2024-03-08T09:57:11;25.37;;;13.23;;
18867;SDS011;9563;49.240;9.088;2024-03-08T09:59:40;28.33;;;15.23;;
18867;SDS011;9563;49.240;9.088;2024-03-08T10:02:13;28.53;;;13.63;;
18867;SDS011;9563;49.240;9.088;2024-03-08T10:04:41;29.60;;;15.07;;
18867;SDS011;9563;49.240;9.088;2024-03-08T10:07:11;50.77;;;14.97;;
18867;SDS011;9563;49.240;9.088;2024-03-08T10:09:39;28.77;;;14.17;;
18867;SDS011;9563;49.240;9.088;2024-03-08T10:12:12;29.50;;;15.10;;
18867;SDS011;9563;49.240;9.088;2024-03-08T10:14:39;25.70;;;13.67;;
18867;SDS011;9563;49.240;9.088;2024-03-08T10:17:08;27.07;;;14.10;;
18867;SDS011;9563;49.240;9.088;2024-03-08T10:19:35;31.43;;;13.70;;
18867;SDS011;9563;49.240;9.088;2024-03-08T10:22:02;28.63;;;14.17;;
18867;SDS011;9563;49.240;9.088;2024-03-08T10:24:29;29.80;;;14.27;;
18867;SDS011;9563;49.240;9.088;2024-03-08T10:27:00;30.17;;;14.07;;
18867;SDS011;9563;49.240;9.088;2024-03-08T10:29:30;30.30;;;14.80;;
18867;SDS011;9563;49.240;9.088;2024-03-08T10:31:57;28.70;;;14.63;;
18867;SDS011;9563;49.240;9.088;2024-03-08T10:34:24;29.00;;;15.07;;
18867;SDS011;9563;49.240;9.088;2024-03-08T10:36:51;30.67;;;15.97;;
18867;SDS011;9563;49.240;9.088;2024-03-08T10:39:21;24.83;;;14.40;;
18867;SDS011;9563;49.240;9.088;2024-03-08T10:41:52;26.97;;;14.77;;
18867;SDS011;9563;49.240;9.088;2024-03-08T10:44:43;27.83;;;14.70;;
18867;SDS011;9563;49.240;9.088;2024-03-08T10:47:18;33.40;;;15.97;;
18867;SDS011;9563;49.240;9.088;2024-03-08T10:49:52;29.73;;;14.93;;
18867;SDS011;9563;49.240;9.088;2024-03-08T10:52:22;32.43;;;15.73;;
18867;SDS011;9563;49.240;9.088;2024-03-08T10:54:50;28.90;;;15.37;;
18867;SDS011;9563;49.240;9.088;2024-03-08T10:57:21;32.27;;;16.13;;
18867;SDS011;9563;49.240;9.088;2024-03-08T10:59:51;31.50;;;15.80;;
18867;SDS011;9563;49.240;9.088;2024-03-08T11:02:19;26.23;;;14.30;;
18867;SDS011;9563;49.240;9.088;2024-03-08T11:04:47;31.37;;;15.40;;
18867;SDS011;9563;49.240;9.088;2024-03-08T11:07:14;33.90;;;15.47;;
18867;SDS011;9563;49.240;9.088;2024-03-08T11:09:44;29.80;;;15.67;;
18867;SDS011;9563;49.240;9.088;2024-03-08T11:12:18;27.50;;;15.13;;
18867;SDS011;9563;49.240;9.088;2024-03-08T11:14:52;29.10;;;15.30;;
18867;SDS011;9563;49.240;9.088;2024-03-08T11:17:20;30.47;;;15.80;;
18867;SDS011;9563;49.240;9.088;2024-03-08T11:19:52;27.37;;;14.93;;
18867;SDS011;9563;49.240;9.088;2024-03-08T11:22:23;34.30;;;16.47;;
18867;SDS011;9563;49.240;9.088;2024-03-08T11:24:58;31.85;;;16.08;;
18867;SDS011;9563;49.240;9.088;2024-03-08T11:27:28;29.25;;;16.08;;
18867;SDS011;9563;49.240;9.088;2024-03-08T11:30:00;30.10;;;15.43;;
18867;SDS011;9563;49.240;9.088;2024-03-08T11:32:35;27.05;;;14.48;;
18867;SDS011;9563;49.240;9.088;2024-03-08T11:35:05;30.88;;;16.05;;
18867;SDS011;9563;49.240;9.088;2024-03-08T11:37:34;29.30;;;16.05;;
18867;SDS011;9563;49.240;9.088;2024-03-08T11:40:01;30.73;;;16.42;;
18867;SDS011;9563;49.240;9.088;2024-03-08T11:42:29;28.38;;;16.40;;
18867;SDS011;9563;49.240;9.088;2024-03-08T11:44:57;30.92;;;15.93;;
18867;SDS011;9563;49.240;9.088;2024-03-08T11:47:25;32.85;;;16.40;;
18867;SDS011;9563;49.240;9.088;2024-03-08T11:49:52;29.85;;;16.13;;
18867;SDS011;9563;49.240;9.088;2024-03-08T11:52:19;30.92;;;16.48;;
18867;SDS011;9563;49.240;9.088;2024-03-08T11:54:51;32.17;;;15.45;;
18867;SDS011;9563;49.240;9.088;2024-03-08T11:57:21;29.20;;;15.85;;
18867;SDS011;9563;49.240;9.088;2024-03-08T11:59:49;28.30;;;15.48;;
18867;SDS011;9563;49.240;9.088;2024-03-08T12:02:16;31.63;;;16.45;;
18867;SDS011;9563;49.240;9.088;2024-03-08T12:04:45;27.67;;;16.20;;
18867;SDS011;9563;49.240;9.088;2024-03-08T12:07:12;28.70;;;16.05;;
18867;SDS011;9563;49.240;9.088;2024-03-08T12:09:39;32.10;;;17.65;;
18867;SDS011;9563;49.240;9.088;2024-03-08T12:12:11;29.55;;;16.42;;
18867;SDS011;9563;49.240;9.088;2024-03-08T12:14:38;30.83;;;17.13;;
18867;SDS011;9563;49.240;9.088;2024-03-08T12:17:09;33.40;;;16.80;;
18867;SDS011;9563;49.240;9.088;2024-03-08T12:19:36;32.72;;;17.40;;
18867;SDS011;9563;49.240;9.088;2024-03-08T12:22:08;32.55;;;17.75;;
18867;SDS011;9563;49.240;9.088;2024-03-08T12:24:36;31.08;;;16.45;;
18867;SDS011;9563;49.240;9.088;2024-03-08T12:27:17;30.48;;;16.42;;
18867;SDS011;9563;49.240;9.088;2024-03-08T12:29:44;29.77;;;15.55;;
18867;SDS011;9563;49.240;9.088;2024-03-08T12:32:12;26.45;;;14.82;;
18867;SDS011;9563;49.240;9.088;2024-03-08T12:34:39;29.33;;;16.20;;
18867;SDS011;9563;49.240;9.088;2024-03-08T12:37:06;30.30;;;16.33;;
18867;SDS011;9563;49.240;9.088;2024-03-08T12:39:36;28.85;;;15.60;;
18867;SDS011;9563;49.240;9.088;2024-03-08T12:42:03;29.70;;;15.77;;
18867;SDS011;9563;49.240;9.088;2024-03-08T12:44:31;26.33;;;14.77;;
18867;SDS011;9563;49.240;9.088;2024-03-08T12:46:58;30.02;;;16.05;;
18867;SDS011;9563;49.240;9.088;2024-03-08T12:49:25;26.60;;;14.25;;
18867;SDS011;9563;49.240;9.088;2024-03-08T12:51:52;29.58;;;15.60;;
18867;SDS011;9563;49.240;9.088;2024-03-08T12:54:19;26.08;;;15.15;;
18867;SDS011;9563;49.240;9.088;2024-03-08T12:56:49;29.92;;;16.20;;
18867;SDS011;9563;49.240;9.088;2024-03-08T12:59:18;30.25;;;15.57;;
18867;SDS011;9563;49.240;9.088;2024-03-08T13:01:46;31.10;;;16.35;;
18867;SDS011;9563;49.240;9.088;2024-03-08T13:04:13;30.27;;;15.63;;
18867;SDS011;9563;49.240;9.088;2024-03-08T13:06:40;27.77;;;15.85;;
18867;SDS011;9563;49.240;9.088;2024-03-08T13:09:07;28.58;;;14.98;;
18867;SDS011;9563;49.240;9.088;2024-03-08T13:11:35;27.52;;;15.05;;
18867;SDS011;9563;49.240;9.088;2024-03-08T13:14:04;28.58;;;15.10;;
18867;SDS011;9563;49.240;9.088;2024-03-08T13:16:31;26.52;;;14.82;;
18867;SDS011;9563;49.240;9.088;2024-03-08T13:18:59;25.80;;;14.38;;
18867;SDS011;9563;49.240;9.088;2024-03-08T13:21:26;30.65;;;14.82;;
18867;SDS011;9563;49.240;9.088;2024-03-08T13:23:55;27.23;;;14.63;;
18867;SDS011;9563;49.240;9.088;2024-03-08T13:26:24;24.10;;;13.98;;
18867;SDS011;9563;49.240;9.088;2024-03-08T13:28:55;27.60;;;14.55;;
18867;SDS011;9563;49.240;9.088;2024-03-08T13:31:25;30.77;;;15.60;;
18867;SDS011;9563;49.240;9.088;2024-03-08T13:33:53;26.25;;;14.18;;
18867;SDS011;9563;49.240;9.088;2024-03-08T13:36:23;25.88;;;14.85;;
18867;SDS011;9563;49.240;9.088;2024-03-08T13:38:54;26.85;;;14.30;;
18867;SDS011;9563;49.240;9.088;2024-03-08T13:41:21;25.20;;;14.10;;
18867;SDS011;9563;49.240;9.088;2024-03-08T13:43:49;24.35;;;14.52;;
18867;SDS011;9563;49.240;9.088;2024-03-08T13:46:16;23.33;;;14.02;;
18867;SDS011;9563;49.240;9.088;2024-03-08T13:48:45;24.70;;;14.80;;
18867;SDS011;9563;49.240;9.088;2024-03-08T13:51:13;25.58;;;14.15;;
18867;SDS011;9563;49.240;9.088;2024-03-08T13:53:40;24.17;;;13.68;;
18867;SDS011;9563;49.240;9.088;2024-03-08T13:56:07;28.88;;;15.25;;
18867;SDS011;9563;49.240;9.088;2024-03-08T13:58:35;29.35;;;15.63;;
18867;SDS011;9563;49.240;9.088;2024-03-08T14:01:02;23.13;;;14.32;;
18867;SDS011;9563;49.240;9.088;2024-03-08T14:03:36;23.17;;;13.60;;
18867;SDS011;9563;49.240;9.088;2024-03-08T14:06:04;26.05;;;14.20;;
18867;SDS011;9563;49.240;9.088;2024-03-08T14:08:32;24.27;;;14.43;;
18867;SDS011;9563;49.240;9.088;2024-03-08T14:10:59;26.08;;;14.23;;
18867;SDS011;9563;49.240;9.088;2024-03-08T14:13:35;23.25;;;14.45;;
18867;SDS011;9563;49.240;9.088;2024-03-08T14:16:02;25.50;;;13.98;;
18867;SDS011;9563;49.240;9.088;2024-03-08T14:18:29;26.15;;;14.27;;
18867;SDS011;9563;49.240;9.088;2024-03-08T14:20:59;25.10;;;14.15;;
18867;SDS011;9563;49.240;9.088;2024-03-08T14:23:27;24.13;;;14.70;;
18867;SDS011;9563;49.240;9.088;2024-03-08T14:25:54;24.80;;;13.70;;
18867;SDS011;9563;49.240;9.088;2024-03-08T14:28:24;25.38;;;13.68;;
18867;SDS011;9563;49.240;9.088;2024-03-08T14:30:52;25.30;;;13.25;;
18867;SDS011;9563;49.240;9.088;2024-03-08T14:33:19;29.13;;;14.52;;
18867;SDS011;9563;49.240;9.088;2024-03-08T14:35:46;24.88;;;13.52;;
18867;SDS011;9563;49.240;9.088;2024-03-08T14:38:14;25.10;;;14.82;;
18867;SDS011;9563;49.240;9.088;2024-03-08T14:40:44;24.48;;;14.43;;
18867;SDS011;9563;49.240;9.088;2024-03-08T14:43:12;25.85;;;14.80;;
18867;SDS011;9563;49.240;9.088;2024-03-08T14:45:40;26.05;;;14.93;;
18867;SDS011;9563;49.240;9.088;2024-03-08T14:48:07;28.25;;;15.05;;
18867;SDS011;9563;49.240;9.088;2024-03-08T14:50:36;24.33;;;13.43;;
18867;SDS011;9563;49.240;9.088;2024-03-08T14:53:04;27.15;;;14.35;;
18867;SDS011;9563;49.240;9.088;2024-03-08T14:55:31;24.77;;;14.35;;
18867;SDS011;9563;49.240;9.088;2024-03-08T14:58:01;26.92;;;13.63;;
18867;SDS011;9563;49.240;9.088;2024-03-08T15:00:29;25.30;;;14.48;;
18867;SDS011;9563;49.240;9.088;2024-03-08T15:02:59;26.98;;;13.63;;
18867;SDS011;9563;49.240;9.088;2024-03-08T15:05:27;23.33;;;14.02;;
18867;SDS011;9563;49.240;9.088;2024-03-08T15:07:57;26.65;;;14.27;;
18867;SDS011;9563;49.240;9.088;2024-03-08T15:10:25;26.50;;;14.07;;
18867;SDS011;9563;49.240;9.088;2024-03-08T15:12:54;28.95;;;15.70;;
18867;SDS011;9563;49.240;9.088;2024-03-08T15:15:25;29.23;;;14.43;;
18867;SDS011;9563;49.240;9.088;2024-03-08T15:17:52;30.77;;;15.80;;
18867;SDS011;9563;49.240;9.088;2024-03-08T15:20:22;26.50;;;14.43;;
18867;SDS011;9563;49.240;9.088;2024-03-08T15:22:50;28.98;;;15.93;;
18867;SDS011;9563;49.240;9.088;2024-03-08T15:25:19;24.85;;;14.27;;
18867;SDS011;9563;49.240;9.088;2024-03-08T15:27:50;30.35;;;15.38;;
18867;SDS011;9563;49.240;9.088;2024-03-08T15:30:18;26.83;;;15.25;;
18867;SDS011;9563;49.240;9.088;2024-03-08T15:32:49;26.35;;;14.82;;
18867;SDS011;9563;49.240;9.088;2024-03-08T15:35:16;29.58;;;14.93;;
18867;SDS011;9563;49.240;9.088;2024-03-08T15:37:43;27.38;;;14.93;;
18867;SDS011;9563;49.240;9.088;2024-03-08T15:40:11;28.17;;;14.80;;
18867;SDS011;9563;49.240;9.088;2024-03-08T15:42:46;26.17;;;15.05;;
18867;SDS011;9563;49.240;9.088;2024-03-08T15:45:21;26.33;;;14.90;;
18867;SDS011;9563;49.240;9.088;2024-03-08T15:47:49;28.90;;;16.00;;
18867;SDS011;9563;49.240;9.088;2024-03-08T15:50:16;29.17;;;14.70;;
18867;SDS011;9563;49.240;9.088;2024-03-08T15:52:47;29.20;;;15.25;;
18867;SDS011;9563;49.240;9.088;2024-03-08T15:55:14;26.75;;;15.23;;
18867;SDS011;9563;49.240;9.088;2024-03-08T15:57:45;30.27;;;16.02;;
18867;SDS011;9563;49.240;9.088;2024-03-08T16:00:13;33.17;;;16.92;;
18867;SDS011;9563;49.240;9.088;2024-03-08T16:02:59;35.28;;;16.10;;
18867;SDS011;9563;49.240;9.088;2024-03-08T16:05:31;28.90;;;16.35;;
18867;SDS011;9563;49.240;9.088;2024-03-08T16:07:58;28.40;;;15.52;;
18867;SDS011;9563;49.240;9.088;2024-03-08T16:10:25;29.55;;;15.57;;
18867;SDS011;9563;49.240;9.088;2024-03-08T16:12:53;25.58;;;14.45;;
18867;SDS011;9563;49.240;9.088;2024-03-08T16:15:20;28.98;;;14.15;;
18867;SDS011;9563;49.240;9.088;2024-03-08T16:17:47;26.20;;;14.23;;
18867;SDS011;9563;49.240;9.088;2024-03-08T16:20:16;24.85;;;13.93;;
18867;SDS011;9563;49.240;9.088;2024-03-08T16:22:43;24.25;;;13.63;;
18867;SDS011;9563;49.240;9.088;2024-03-08T16:25:10;28.65;;;14.18;;
18867;SDS011;9563;49.240;9.088;2024-03-08T16:27:39;29.60;;;15.55;;
18867;SDS011;9563;49.240;9.088;2024-03-08T16:30:07;27.88;;;14.55;;
18867;SDS011;9563;49.240;9.088;2024-03-08T16:32:41;26.38;;;13.77;;
18867;SDS011;9563;49.240;9.088;2024-03-08T16:35:10;30.20;;;13.10;;
18867;SDS011;9563;49.240;9.088;2024-03-08T16:37:38;24.80;;;13.18;;
18867;SDS011;9563;49.240;9.088;2024-03-08T16:40:07;28.63;;;13.88;;
18867;SDS011;9563;49.240;9.088;2024-03-08T16:42:40;28.17;;;14.45;;
18867;SDS011;9563;49.240;9.088;2024-03-08T16:45:08;26.30;;;14.25;;
18867;SDS011;9563;49.240;9.088;2024-03-08T16:47:36;27.25;;;13.77;;
18867;SDS011;9563;49.240;9.088;2024-03-08T16:50:03;28.58;;;13.38;;
18867;SDS011;9563;49.240;9.088;2024-03-08T16:52:32;24.42;;;13.73;;
18867;SDS011;9563;49.240;9.088;2024-03-08T16:55:01;30.48;;;14.90;;
18867;SDS011;9563;49.240;9.088;2024-03-08T16:57:31;24.00;;;12.93;;
18867;SDS011;9563;49.240;9.088;2024-03-08T16:59:58;25.00;;;12.43;;
18867;SDS011;9563;49.240;9.088;2024-03-08T17:02:25;23.38;;;12.10;;
18867;SDS011;9563;49.240;9.088;2024-03-08T17:04:52;23.60;;;13.18;;
18867;SDS011;9563;49.240;9.088;2024-03-08T17:07:19;22.20;;;12.68;;
18867;SDS011;9563;49.240;9.088;2024-03-08T17:09:47;21.63;;;11.55;;
18867;SDS011;9563;49.240;9.088;2024-03-08T17:12:16;25.20;;;12.73;;
18867;SDS011;9563;49.240;9.088;2024-03-08T17:14:45;23.10;;;12.15;;
18867;SDS011;9563;49.240;9.088;2024-03-08T17:17:12;22.23;;;11.98;;
18867;SDS011;9563;49.240;9.088;2024-03-08T17:19:39;21.17;;;11.90;;
18867;SDS011;9563;49.240;9.088;2024-03-08T17:22:06;24.35;;;12.93;;
18867;SDS011;9563;49.240;9.088;2024-03-08T17:24:34;26.25;;;12.27;;
18867;SDS011;9563;49.240;9.088;2024-03-08T17:27:01;28.00;;;13.63;;
18867;SDS011;9563;49.240;9.088;2024-03-08T17:29:30;25.48;;;12.73;;
18867;SDS011;9563;49.240;9.088;2024-03-08T17:31:57;52.88;;;21.75;;
18867;SDS011;9563;49.240;9.088;2024-03-08T17:34:23;52.05;;;23.83;;
18867;SDS011;9563;49.240;9.088;2024-03-08T17:36:52;38.78;;;17.75;;
18867;SDS011;9563;49.240;9.088;2024-03-08T17:39:22;26.92;;;14.15;;
18867;SDS011;9563;49.240;9.088;2024-03-08T17:41:54;24.13;;;13.43;;
18867;SDS011;9563;49.240;9.088;2024-03-08T17:44:21;26.63;;;13.00;;
18867;SDS011;9563;49.240;9.088;2024-03-08T17:46:50;29.87;;;14.27;;
18867;SDS011;9563;49.240;9.088;2024-03-08T17:49:18;27.73;;;14.73;;
18867;SDS011;9563;49.240;9.088;2024-03-08T17:51:46;23.48;;;12.63;;
18867;SDS011;9563;49.240;9.088;2024-03-08T17:54:14;33.03;;;15.45;;
18867;SDS011;9563;49.240;9.088;2024-03-08T17:56:41;28.70;;;13.93;;
18867;SDS011;9563;49.240;9.088;2024-03-08T17:59:08;33.90;;;15.90;;
18867;SDS011;9563;49.240;9.088;2024-03-08T18:01:37;41.80;;;18.88;;
18867;SDS011;9563;49.240;9.088;2024-03-08T18:04:06;29.23;;;15.27;;
18867;SDS011;9563;49.240;9.088;2024-03-08T18:06:34;31.42;;;13.77;;
18867;SDS011;9563;49.240;9.088;2024-03-08T18:09:02;29.30;;;14.98;;
18867;SDS011;9563;49.240;9.088;2024-03-08T18:11:34;33.53;;;16.23;;
18867;SDS011;9563;49.240;9.088;2024-03-08T18:14:01;25.37;;;13.40;;
18867;SDS011;9563;49.240;9.088;2024-03-08T18:16:33;24.17;;;12.43;;
18867;SDS011;9563;49.240;9.088;2024-03-08T18:19:03;25.63;;;11.97;;
18867;SDS011;9563;49.240;9.088;2024-03-08T18:21:34;24.05;;;13.40;;
18867;SDS011;9563;49.240;9.088;2024-03-08T18:24:02;26.60;;;13.27;;
18867;SDS011;9563;49.240;9.088;2024-03-08T18:26:30;22.23;;;10.80;;
18867;SDS011;9563;49.240;9.088;2024-03-08T18:28:59;20.10;;;10.80;;
18867;SDS011;9563;49.240;9.088;2024-03-08T18:31:29;20.97;;;11.40;;
18867;SDS011;9563;49.240;9.088;2024-03-08T18:33:56;24.13;;;11.13;;
18867;SDS011;9563;49.240;9.088;2024-03-08T18:36:24;21.07;;;11.03;;
18867;SDS011;9563;49.240;9.088;2024-03-08T18:38:53;26.90;;;11.60;;
18867;SDS011;9563;49.240;9.088;2024-03-08T18:41:21;24.50;;;11.77;;
18867;SDS011;9563;49.240;9.088;2024-03-08T18:43:51;23.57;;;11.13;;
18867;SDS011;9563;49.240;9.088;2024-03-08T18:46:19;20.03;;;10.60;;
18867;SDS011;9563;49.240;9.088;2024-03-08T18:48:47;22.97;;;10.33;;
18867;SDS011;9563;49.240;9.088;2024-03-08T18:51:15;23.33;;;10.70;;
18867;SDS011;9563;49.240;9.088;2024-03-08T18:53:42;23.43;;;11.03;;
18867;SDS011;9563;49.240;9.088;2024-03-08T18:56:10;24.30;;;11.83;;
18867;SDS011;9563;49.240;9.088;2024-03-08T18:58:39;29.73;;;13.10;;
18867;SDS011;9563;49.240;9.088;2024-03-08T19:01:06;28.27;;;13.03;;
18867;SDS011;9563;49.240;9.088;2024-03-08T19:03:33;23.73;;;10.93;;
18867;SDS011;9563;49.240;9.088;2024-03-08T19:06:03;21.90;;;11.53;;
18867;SDS011;9563;49.240;9.088;2024-03-08T19:08:30;25.10;;;11.93;;
18867;SDS011;9563;49.240;9.088;2024-03-08T19:10:58;34.07;;;14.83;;
18867;SDS011;9563;49.240;9.088;2024-03-08T19:13:26;37.10;;;16.60;;
18867;SDS011;9563;49.240;9.088;2024-03-08T19:15:53;31.70;;;15.53;;
18867;SDS011;9563;49.240;9.088;2024-03-08T19:18:20;21.50;;;11.33;;
18867;SDS011;9563;49.240;9.088;2024-03-08T19:20:47;23.37;;;11.00;;
18867;SDS011;9563;49.240;9.088;2024-03-08T19:23:13;31.20;;;9.70;;
18867;SDS011;9563;49.240;9.088;2024-03-08T19:25:40;19.77;;;9.17;;
18867;SDS011;9563;49.240;9.088;2024-03-08T19:28:08;18.07;;;9.80;;
18867;SDS011;9563;49.240;9.088;2024-03-08T19:30:39;17.20;;;8.97;;
18867;SDS011;9563;49.240;9.088;2024-03-08T19:33:06;18.97;;;9.43;;
18867;SDS011;9563;49.240;9.088;2024-03-08T19:35:36;17.87;;;9.10;;
18867;SDS011;9563;49.240;9.088;2024-03-08T19:38:03;19.43;;;8.53;;
18867;SDS011;9563;49.240;9.088;2024-03-08T19:40:32;21.67;;;10.00;;
18867;SDS011;9563;49.240;9.088;2024-03-08T19:43:02;19.73;;;9.77;;